Time;durP1;ratioP1;P1;durP2;ratioP2;P2;SDS_P1;SDS_P2;PMS_P1;PMS_P2;Temp;Humidity;BMP_temperature;BMP_pressure;BME280_temperature;BME280_humidity;BME280_pressure;Samples;Min_cycle;Max_cycle;Signal;HPM_P1;HPM_P2
2022/05/10 00:02:22;;;;;;;0.57;0.20;;;;;;;16.58;40.49;101006.41;4951093;29;20083;-74
2022/05/10 00:04:53;;;;;;;0.68;0.30;;;;;;;16.53;41.70;101009.84;4952153;29;20136;-76
2022/05/10 00:07:23;;;;;;;0.93;0.40;;;;;;;16.44;42.39;101011.53;4951860;29;20063;-76
2022/05/10 00:09:52;;;;;;;0.40;0.20;;;;;;;16.40;43.22;101018.47;4952145;29;20051;-76
2022/05/10 00:12:20;;;;;;;0.70;0.30;;;;;;;16.40;43.39;101015.84;4952082;28;20564;-76
2022/05/10 00:14:49;;;;;;;0.90;0.30;;;;;;;16.29;42.20;101015.75;4952318;29;20047;-75
2022/05/10 00:17:25;;;;;;;0.43;0.30;;;;;;;16.16;42.47;101018.22;4951834;29;20059;-75
2022/05/10 00:19:55;;;;;;;1.65;0.55;;;;;;;16.06;43.52;101025.94;4951744;29;20059;-75
2022/05/10 00:22:24;;;;;;;0.38;0.13;;;;;;;15.95;41.41;101017.09;4951449;29;20059;-75
2022/05/10 00:24:52;;;;;;;0.63;0.20;;;;;;;15.93;42.80;101017.94;4952108;29;20089;-75
2022/05/10 00:27:21;;;;;;;0.80;0.40;;;;;;;15.93;43.68;101026.66;4951386;29;20043;-76
2022/05/10 00:29:49;;;;;;;1.52;0.40;;;;;;;15.91;45.51;101028.34;4951587;29;20086;-74
2022/05/10 00:32:18;;;;;;;0.60;0.32;;;;;;;15.89;46.40;101032.69;4951607;29;20086;-75
2022/05/10 00:34:47;;;;;;;0.85;0.40;;;;;;;15.86;47.03;101035.25;4951629;29;20106;-74
2022/05/10 00:37:22;;;;;;;2.88;0.50;;;;;;;15.79;47.65;101036.06;4951065;29;20094;-75
2022/05/10 00:39:51;;;;;;;1.00;0.40;;;;;;;15.74;47.50;101029.91;4963970;28;20054;-73
2022/05/10 00:42:25;;;;;;;0.57;0.20;;;;;;;15.61;47.37;101023.59;4972805;28;20085;-72
2022/05/10 00:44:58;;;;;;;1.20;0.30;;;;;;;15.68;46.01;101038.47;4972072;28;20082;-75
2022/05/10 00:47:36;;;;;;;1.15;0.30;;;;;;;15.68;46.64;101041.09;4970292;28;20507;-82
2022/05/10 00:50:08;;;;;;;0.52;0.20;;;;;;;15.64;46.19;101040.16;4971076;28;20062;-81
2022/05/10 00:52:45;;;;;;;0.95;0.30;;;;;;;15.59;48.47;101036.63;4970206;28;20560;-75
2022/05/10 00:55:19;;;;;;;0.50;0.30;;;;;;;15.52;47.69;101040.00;4970497;28;20090;-77
2022/05/10 00:57:53;;;;;;;0.50;0.30;;;;;;;15.47;47.94;101037.31;4970670;28;20102;-78
2022/05/10 01:00:23;;;;;;;1.45;0.40;;;;;;;15.44;47.90;101047.72;4969950;28;20086;-76
2022/05/10 01:03:04;;;;;;;0.52;0.28;;;;;;;15.39;49.01;101041.56;4970275;28;20536;-79
2022/05/10 01:05:38;;;;;;;0.88;0.30;;;;;;;15.40;49.74;101039.84;4970021;28;20195;-77
2022/05/10 01:08:13;;;;;;;0.20;0.20;;;;;;;15.41;48.65;101044.19;4970212;28;20055;-79
2022/05/10 01:10:47;;;;;;;0.77;0.20;;;;;;;15.34;50.35;101047.56;4970001;28;20118;-77
2022/05/10 01:13:25;;;;;;;1.17;0.55;;;;;;;15.24;50.33;101047.44;4968737;28;20066;-79
2022/05/10 01:16:07;;;;;;;1.17;0.40;;;;;;;15.13;50.36;101046.38;4969756;28;20051;-79
2022/05/10 01:18:37;;;;;;;0.85;0.35;;;;;;;15.07;50.98;101056.72;4970183;28;20042;-80
2022/05/10 01:21:24;;;;;;;0.90;0.30;;;;;;;15.00;50.78;101049.66;4970002;28;20054;-79
2022/05/10 01:24:34;;;;;;;1.10;0.32;;;;;;;14.91;51.31;101049.50;4970133;28;20496;-78
2022/05/10 01:27:20;;;;;;;0.93;0.40;;;;;;;14.87;51.72;101053.78;4946811;28;20571;-78
2022/05/10 01:29:53;;;;;;;0.90;0.40;;;;;;;14.86;51.68;101052.03;4970301;28;20047;-76
2022/05/10 01:35:16;;;;;;;0.25;0.20;;;;;;;14.92;49.84;101043.44;4969897;28;20420;-75
2022/05/10 01:37:50;;;;;;;0.30;0.20;;;;;;;14.88;48.33;101051.19;4953123;28;20082;-75
2022/05/10 01:40:37;;;;;;;0.45;0.30;;;;;;;14.85;47.69;101047.69;4964952;28;20556;-75
2022/05/10 01:43:12;;;;;;;0.22;0.20;;;;;;;14.79;47.46;101050.19;4969179;28;20046;-75
2022/05/10 01:45:47;;;;;;;0.82;0.28;;;;;;;14.67;44.28;101053.44;4969797;28;20082;-78
2022/05/10 01:48:20;;;;;;;0.47;0.20;;;;;;;14.56;45.28;101054.97;4969500;28;20046;-76
2022/05/10 01:50:52;;;;;;;0.40;0.10;;;;;;;14.48;48.51;101053.91;4970134;28;20497;-78
2022/05/10 01:53:26;;;;;;;0.82;0.30;;;;;;;14.43;48.15;101059.94;4969488;28;20062;-78
2022/05/10 01:56:01;;;;;;;0.90;0.40;;;;;;;14.46;48.13;101057.38;4969478;28;20051;-77
2022/05/10 01:58:31;;;;;;;0.50;0.40;;;;;;;14.42;47.09;101050.38;4969163;28;20515;-77
2022/05/10 02:01:03;;;;;;;0.32;0.20;;;;;;;14.43;47.69;101059.03;4969994;28;20441;-76
2022/05/10 02:03:37;;;;;;;0.65;0.30;;;;;;;14.41;48.77;101056.44;4969250;28;20047;-76
2022/05/10 02:06:12;;;;;;;0.98;0.30;;;;;;;14.42;48.03;101057.31;4969702;28;20124;-76
2022/05/10 02:08:47;;;;;;;0.60;0.30;;;;;;;14.46;47.24;101060.00;4969696;28;20053;-75
2022/05/10 02:11:17;;;;;;;1.45;0.60;;;;;;;14.55;47.24;101061.94;4969270;28;20046;-76
2022/05/10 02:13:52;;;;;;;1.38;0.40;;;;;;;14.57;47.48;101064.56;4970625;28;20055;-77
2022/05/10 02:16:26;;;;;;;0.50;0.35;;;;;;;14.55;47.02;101071.47;4972472;28;20105;-80
2022/05/10 02:19:00;;;;;;;1.02;0.30;;;;;;;14.49;46.16;101064.38;4973393;28;20062;-79
2022/05/10 02:21:33;;;;;;;0.60;0.30;;;;;;;14.42;47.75;101059.91;4973488;28;20047;-81
2022/05/10 02:24:07;;;;;;;1.98;0.25;;;;;;;14.25;48.74;101055.25;4973255;28;20082;-81
2022/05/10 02:26:42;;;;;;;0.88;0.30;;;;;;;14.22;49.28;101068.22;4973191;28;20055;-79
2022/05/10 02:29:22;;;;;;;0.45;0.25;;;;;;;14.11;49.50;101067.13;4973435;28;20074;-79
2022/05/10 02:34:46;;;;;;;1.25;0.22;;;;;;;13.96;51.50;101072.88;4976043;28;20201;-79
2022/05/10 02:37:15;;;;;;;1.35;0.40;;;;;;;13.92;52.14;101073.66;4981668;28;20523;-80
2022/05/10 02:39:44;;;;;;;0.63;0.38;;;;;;;13.90;52.11;101070.16;4985185;28;20134;-81
2022/05/10 02:42:14;;;;;;;0.55;0.40;;;;;;;13.85;52.42;101073.50;4981583;28;20054;-85
2022/05/10 02:44:43;;;;;;;0.75;0.43;;;;;;;13.79;51.93;101077.75;4993055;28;20548;-86
2022/05/10 02:47:13;;;;;;;0.57;0.30;;;;;;;13.73;52.42;101076.75;4992389;28;20492;-86
2022/05/10 02:49:42;;;;;;;0.38;0.30;;;;;;;13.67;52.95;101071.38;4994199;28;20120;-83
2022/05/10 02:52:10;;;;;;;1.45;0.20;;;;;;;13.64;52.81;101074.81;4992684;28;20146;-85
2022/05/10 02:54:39;;;;;;;0.85;0.17;;;;;;;13.62;53.52;101074.75;4993267;28;20046;-86
2022/05/10 02:57:08;;;;;;;1.80;0.40;;;;;;;13.58;54.01;101088.56;4992918;28;20130;-85
2022/05/10 02:59:40;;;;;;;0.85;0.47;;;;;;;13.52;52.68;101088.41;4993685;28;20128;-86
2022/05/10 03:02:15;;;;;;;0.45;0.22;;;;;;;13.47;51.83;101089.13;4992598;28;20523;-83
2022/05/10 03:04:45;;;;;;;0.65;0.20;;;;;;;13.43;51.38;101093.41;4995665;28;20050;-84
2022/05/10 03:07:13;;;;;;;0.43;0.20;;;;;;;13.37;51.97;101098.44;4992598;28;20051;-87
2022/05/10 03:09:42;;;;;;;0.63;0.32;;;;;;;13.34;53.37;101095.78;4995294;28;20046;-87
2022/05/10 03:12:11;;;;;;;1.17;0.60;;;;;;;13.30;53.74;101099.16;4994680;28;20149;-86
2022/05/10 03:14:40;;;;;;;1.60;0.50;;;;;;;13.26;53.57;101105.06;4979298;28;20164;-88
2022/05/10 03:17:10;;;;;;;1.95;0.60;;;;;;;13.20;53.93;101098.91;4973971;28;20051;-84
2022/05/10 03:19:41;;;;;;;1.48;0.60;;;;;;;13.14;54.87;101100.47;4972976;28;20142;-85
2022/05/10 03:22:09;;;;;;;1.50;0.65;;;;;;;13.08;56.94;101106.41;4972254;28;20085;-86
2022/05/10 03:24:38;;;;;;;1.20;0.50;;;;;;;13.00;57.63;101107.91;4971142;28;20113;-86
2022/05/10 03:27:08;;;;;;;1.48;0.50;;;;;;;12.93;58.96;101103.41;4972621;28;20046;-85
2022/05/10 03:29:39;;;;;;;1.27;0.50;;;;;;;12.86;57.88;101104.97;4976019;28;20086;-86
2022/05/10 03:32:08;;;;;;;0.90;0.38;;;;;;;12.83;57.34;101114.38;4972349;28;20486;-86
2022/05/10 03:37:23;;;;;;;0.43;0.25;;;;;;;12.76;57.23;101119.44;5140424;23;20058;-80
2022/05/10 03:39:51;;;;;;;0.30;0.25;;;;;;;12.71;57.62;101110.66;4969559;28;20050;-83
2022/05/10 03:42:20;;;;;;;1.52;0.57;;;;;;;12.66;58.57;101117.41;4955110;28;20055;-86
2022/05/10 03:44:52;;;;;;;0.95;0.60;;;;;;;12.58;58.72;101124.16;4958164;28;20131;-79
2022/05/10 03:47:22;;;;;;;0.80;0.50;;;;;;;12.54;58.76;101128.34;4973040;28;20057;-81
2022/05/10 03:49:51;;;;;;;1.08;0.50;;;;;;;12.52;58.78;101139.53;4973189;28;20054;-81
2022/05/10 03:52:19;;;;;;;1.00;0.50;;;;;;;12.47;60.13;101131.63;4972456;28;20641;-81
2022/05/10 03:54:49;;;;;;;1.63;0.52;;;;;;;12.39;59.20;101134.84;4962252;28;20048;-81
2022/05/10 03:57:18;;;;;;;0.80;0.32;;;;;;;12.30;60.06;101144.13;4974041;28;20067;-80
2022/05/10 03:59:46;;;;;;;1.33;0.70;;;;;;;12.25;60.61;101144.81;4954300;29;20097;-80
2022/05/10 04:02:16;;;;;;;1.08;0.35;;;;;;;12.19;64.40;101152.44;4960569;28;20087;-80
2022/05/10 04:04:45;;;;;;;1.20;0.55;;;;;;;12.01;62.65;101137.22;4973221;28;20116;-81
2022/05/10 04:07:13;;;;;;;0.60;0.52;;;;;;;12.08;64.19;101154.72;4972320;28;20134;-84
2022/05/10 04:09:41;;;;;;;2.00;0.38;;;;;;;12.02;66.10;101164.91;4973068;28;20059;-84
2022/05/10 04:12:12;;;;;;;2.13;0.35;;;;;;;11.95;66.88;101164.72;4971461;28;20134;-80
2022/05/10 04:14:40;;;;;;;1.27;0.40;;;;;;;11.87;65.56;101170.47;4972536;28;20094;-80
2022/05/10 04:17:09;;;;;;;1.38;0.30;;;;;;;11.82;65.90;101180.72;4972593;28;20535;-78
2022/05/10 04:19:37;;;;;;;1.10;0.43;;;;;;;11.80;65.28;101184.97;4972600;28;20105;-77
2022/05/10 04:22:06;;;;;;;1.00;0.60;;;;;;;11.82;67.10;101185.91;4971715;28;20078;-78
2022/05/10 04:24:34;;;;;;;4.07;0.50;;;;;;;11.82;71.19;101193.69;4972000;28;20138;-77
2022/05/10 04:27:03;;;;;;;0.77;0.32;;;;;;;11.81;70.30;101197.09;4972087;28;20476;-78
2022/05/10 04:29:33;;;;;;;0.45;0.38;;;;;;;11.81;67.16;101199.69;4965412;28;20480;-78
2022/05/10 04:32:01;;;;;;;0.45;0.30;;;;;;;11.82;66.11;101200.56;4952506;29;20493;-78
2022/05/10 04:34:30;;;;;;;0.65;0.30;;;;;;;11.82;66.18;101211.81;4952662;29;20051;-78
2022/05/10 04:36:58;;;;;;;0.50;0.25;;;;;;;11.80;65.08;101213.50;4953208;28;20493;-78
2022/05/10 04:41:24;;;;;;;0.50;0.30;;;;;;;11.80;64.26;101210.91;4952982;29;20055;-78
2022/05/10 04:42:14;;;;;;;0.15;0.10;;;;;;;11.79;63.68;101216.03;4952046;29;20136;-78
2022/05/10 04:44:44;;;;;;;0.77;0.28;;;;;;;11.67;62.91;101199.25;4952520;29;20453;-78
2022/05/10 04:47:13;;;;;;;0.63;0.25;;;;;;;11.75;63.38;101209.88;4952547;29;20079;-77
2022/05/10 04:49:48;;;;;;;0.20;0.20;;;;;;;11.74;63.27;101223.66;4952742;29;20051;-78
2022/05/10 04:52:17;;;;;;;1.05;0.35;;;;;;;11.68;67.76;101221.75;4952675;29;20047;-79
2022/05/10 04:54:45;;;;;;;2.60;0.50;;;;;;;11.64;69.51;101222.47;4956141;29;20500;-78
2022/05/10 04:57:14;;;;;;;0.20;0.20;;;;;;;11.58;71.81;101221.41;4952549;29;20571;-79
2022/05/10 04:59:44;;;;;;;1.55;0.40;;;;;;;11.48;71.53;101215.91;4953060;29;20094;-80
2022/05/10 05:02:13;;;;;;;0.85;0.30;;;;;;;11.49;69.42;101227.16;4938393;29;20662;-79
2022/05/10 05:04:41;;;;;;;0.77;0.40;;;;;;;11.47;68.62;101234.00;4933577;29;20047;-79
2022/05/10 05:07:10;;;;;;;0.68;0.43;;;;;;;11.47;67.61;101236.56;4933062;29;20119;-81
2022/05/10 05:09:39;;;;;;;1.15;0.52;;;;;;;11.45;67.75;101233.06;4933173;29;20414;-80
2022/05/10 05:12:07;;;;;;;1.35;0.22;;;;;;;11.42;67.19;101241.59;4932681;29;20048;-81
2022/05/10 05:14:36;;;;;;;0.43;0.20;;;;;;;11.41;67.82;101242.44;4933324;29;20126;-82
2022/05/10 05:17:14;;;;;;;2.00;0.30;;;;;;;11.38;68.68;101244.91;4932953;29;20122;-82
2022/05/10 05:19:42;;;;;;;1.00;0.60;;;;;;;11.35;68.74;101239.66;4933017;29;20138;-81
2022/05/10 05:22:11;;;;;;;5.43;0.80;;;;;;;11.34;68.97;101243.06;4932556;29;20075;-81
2022/05/10 05:24:40;;;;;;;1.45;0.60;;;;;;;11.33;71.72;101241.28;4932952;29;20063;-81
2022/05/10 05:27:08;;;;;;;1.73;0.50;;;;;;;11.29;71.35;101248.09;4932754;29;20106;-81
2022/05/10 05:29:37;;;;;;;1.23;0.63;;;;;;;11.27;71.58;101241.06;4933122;29;20091;-80
2022/05/10 05:32:10;;;;;;;4.60;0.70;;;;;;;11.25;71.11;101242.75;4932014;29;20123;-82
2022/05/10 05:34:40;;;;;;;2.45;0.60;;;;;;;11.24;70.96;101240.97;4932671;29;20075;-81
2022/05/10 05:40:00;;;;;;;1.13;0.40;;;;;;;11.15;66.61;101243.25;4933075;29;20124;-81
2022/05/10 05:42:29;;;;;;;1.75;0.60;;;;;;;11.14;68.08;101244.09;4931942;29;20131;-81
2022/05/10 05:44:58;;;;;;;0.60;0.47;;;;;;;11.11;68.22;101250.94;4939712;29;20043;-81
2022/05/10 05:47:26;;;;;;;1.20;0.52;;;;;;;11.09;68.40;101246.53;4950723;29;20126;-80
2022/05/10 05:49:57;;;;;;;2.75;0.50;;;;;;;11.05;67.09;101250.69;4953578;29;20083;-81
2022/05/10 05:52:26;;;;;;;1.65;0.60;;;;;;;10.96;65.33;101244.31;4953417;29;20059;-78
2022/05/10 05:54:55;;;;;;;0.30;0.30;;;;;;;11.00;68.19;101251.38;4952203;29;20113;-80
2022/05/10 05:57:24;;;;;;;0.80;0.40;;;;;;;10.97;67.73;101252.16;4951628;29;20059;-80
2022/05/10 05:59:55;;;;;;;2.20;0.40;;;;;;;10.91;65.94;101251.94;4951169;29;20062;-80
2022/05/10 06:02:25;;;;;;;0.60;0.35;;;;;;;10.88;66.67;101255.28;4950658;29;20047;-80
2022/05/10 06:04:54;;;;;;;2.25;0.60;;;;;;;10.87;66.85;101255.22;4951828;29;20146;-80
2022/05/10 06:07:24;;;;;;;2.53;0.40;;;;;;;10.84;66.72;101261.19;4951173;29;20051;-81
2022/05/10 06:09:52;;;;;;;0.70;0.63;;;;;;;10.81;66.03;101255.91;4951642;29;20086;-81
2022/05/10 06:12:22;;;;;;;4.78;0.65;;;;;;;10.79;66.89;101257.53;4950673;29;20146;-80
2022/05/10 06:14:50;;;;;;;0.52;0.40;;;;;;;10.75;67.22;101252.19;4951583;29;20055;-81
2022/05/10 06:17:19;;;;;;;2.72;0.85;;;;;;;10.71;66.32;101261.53;4951481;29;20180;-81
2022/05/10 06:19:49;;;;;;;0.65;0.30;;;;;;;10.67;66.99;101264.84;4951600;29;20103;-81
2022/05/10 06:22:17;;;;;;;1.10;0.40;;;;;;;10.60;67.31;101266.31;4950524;29;20508;-82
2022/05/10 06:24:47;;;;;;;0.98;0.40;;;;;;;10.52;67.97;101267.75;4951557;29;20058;-81
2022/05/10 06:27:18;;;;;;;1.10;0.25;;;;;;;10.40;66.91;101267.25;4951009;29;20500;-81
2022/05/10 06:29:47;;;;;;;0.65;0.30;;;;;;;10.33;65.98;101270.44;4951509;29;20051;-82
2022/05/10 06:32:23;;;;;;;0.55;0.30;;;;;;;10.26;65.50;101270.19;4950262;29;20055;-81
2022/05/10 06:34:52;;;;;;;0.40;0.28;;;;;;;10.25;66.91;101273.59;4951572;29;20055;-81
2022/05/10 06:40:16;;;;;;;0.70;0.30;;;;;;;10.24;67.09;101270.97;4951147;29;20145;-80
2022/05/10 06:42:45;;;;;;;0.77;0.47;;;;;;;10.22;67.50;101276.06;4950249;29;20305;-79
2022/05/10 06:45:15;;;;;;;1.02;0.32;;;;;;;10.20;68.62;101282.88;4950698;29;20075;-80
2022/05/10 06:47:47;;;;;;;2.00;0.60;;;;;;;10.16;69.11;101277.50;4952218;29;20050;-80
2022/05/10 06:50:17;;;;;;;0.43;0.32;;;;;;;10.13;67.87;101278.28;4951661;29;20110;-81
2022/05/10 06:52:45;;;;;;;0.95;0.50;;;;;;;10.13;69.15;101283.44;4950814;29;20130;-81
2022/05/10 06:55:16;;;;;;;3.08;0.28;;;;;;;10.09;68.92;101280.69;4951506;29;20047;-81
2022/05/10 06:57:44;;;;;;;0.35;0.35;;;;;;;10.05;69.50;101282.25;4951449;29;20138;-80
2022/05/10 07:00:15;;;;;;;0.63;0.35;;;;;;;10.03;70.35;101289.06;4954571;28;20508;-80
2022/05/10 07:02:43;;;;;;;1.45;0.40;;;;;;;9.93;70.44;101272.31;4943181;29;20075;-81
2022/05/10 07:05:13;;;;;;;0.35;0.13;;;;;;;10.01;69.96;101283.84;4935313;29;20119;-81
2022/05/10 07:07:42;;;;;;;0.75;0.40;;;;;;;9.99;71.38;101289.78;4935441;29;20048;-80
2022/05/10 07:10:12;;;;;;;0.98;0.45;;;;;;;9.97;72.42;101287.13;4942426;29;20134;-80
2022/05/10 07:12:43;;;;;;;0.65;0.30;;;;;;;9.97;72.22;101301.75;4953850;29;20059;-81
2022/05/10 07:15:15;;;;;;;1.77;0.37;;;;;;;9.94;72.44;101291.28;4954288;29;20050;-80
2022/05/10 07:17:43;;;;;;;2.97;0.38;;;;;;;9.91;73.26;101304.09;4954379;29;20110;-80
2022/05/10 07:20:14;;;;;;;4.45;0.98;;;;;;;9.87;73.49;101295.31;4954008;29;20051;-81
2022/05/10 07:22:43;;;;;;;2.63;0.50;;;;;;;9.85;73.77;101299.56;4953828;29;20118;-80
2022/05/10 07:25:14;;;;;;;0.70;0.40;;;;;;;9.81;72.65;101300.25;4954959;29;20052;-79
2022/05/10 07:27:44;;;;;;;1.85;0.60;;;;;;;9.77;73.09;101300.94;4954023;29;20051;-81
2022/05/10 07:30:15;;;;;;;0.22;0.22;;;;;;;9.73;73.32;101302.50;4954192;29;20106;-81
2022/05/10 07:32:44;;;;;;;1.55;0.55;;;;;;;9.69;73.68;101310.06;4953416;29;20051;-80
2022/05/10 07:35:12;;;;;;;0.32;0.30;;;;;;;9.65;73.64;101311.66;4953898;29;20047;-80
2022/05/10 07:37:54;;;;;;;0.70;0.40;;;;;;;9.62;74.15;101303.75;4954494;28;20517;-80
2022/05/10 07:40:23;;;;;;;1.25;0.47;;;;;;;9.58;73.87;101307.91;4953537;29;20055;-80
2022/05/10 07:42:53;;;;;;;0.40;0.32;;;;;;;9.56;74.67;101314.72;4952772;29;20087;-80
2022/05/10 07:45:21;;;;;;;1.65;0.45;;;;;;;9.52;74.77;101311.94;4956108;29;20051;-80
2022/05/10 07:47:49;;;;;;;1.33;0.40;;;;;;;9.48;74.73;101305.75;4954982;29;20562;-81
2022/05/10 07:50:18;;;;;;;3.03;0.47;;;;;;;9.47;74.43;101308.28;4953804;29;20524;-81
2022/05/10 07:52:47;;;;;;;4.28;0.45;;;;;;;9.44;75.44;101309.91;4952924;29;20118;-82
2022/05/10 07:55:15;;;;;;;1.05;0.65;;;;;;;9.42;75.48;101311.56;4953650;29;20110;-81
2022/05/10 07:57:44;;;;;;;2.58;0.50;;;;;;;9.39;75.50;101311.44;4953175;29;20130;-80
2022/05/10 08:00:16;;;;;;;0.80;0.50;;;;;;;9.37;74.89;101318.22;4953195;29;20070;-82
2022/05/10 08:02:46;;;;;;;0.93;0.40;;;;;;;9.33;74.91;101316.31;4952834;29;20059;-82
2022/05/10 08:05:19;;;;;;;2.05;0.57;;;;;;;9.32;74.96;101316.25;4952756;29;20059;-83
2022/05/10 08:07:48;;;;;;;1.35;0.43;;;;;;;9.31;74.80;101317.94;4953304;29;20087;-82
2022/05/10 08:10:17;;;;;;;0.70;0.50;;;;;;;9.29;75.28;101317.00;4952833;28;20111;-82
2022/05/10 08:12:46;;;;;;;0.80;0.50;;;;;;;9.24;75.45;101315.91;4953073;29;20051;-81
2022/05/10 08:15:16;;;;;;;0.80;0.50;;;;;;;9.23;74.38;101320.22;4953189;29;20133;-82
2022/05/10 08:17:45;;;;;;;0.95;0.40;;;;;;;9.25;75.29;101322.84;4953602;29;20062;-81
2022/05/10 08:20:14;;;;;;;0.40;0.30;;;;;;;9.26;74.32;101326.31;4952976;29;20059;-81
2022/05/10 08:22:43;;;;;;;0.65;0.52;;;;;;;9.25;77.40;101322.84;4952138;29;20130;-80
2022/05/10 08:25:13;;;;;;;2.90;0.90;;;;;;;9.28;78.64;101317.81;4953235;29;20051;-82
2022/05/10 08:27:41;;;;;;;1.45;0.52;;;;;;;9.28;77.71;101325.56;4953030;29;20569;-82
2022/05/10 08:30:11;;;;;;;3.60;0.80;;;;;;;9.27;77.51;101323.78;4953036;29;20110;-80
2022/05/10 08:32:41;;;;;;;0.73;0.35;;;;;;;9.23;78.13;101324.47;4952246;29;20501;-80
2022/05/10 08:35:10;;;;;;;1.08;0.30;;;;;;;9.23;77.63;101324.47;4953062;29;20122;-82
2022/05/10 08:37:39;;;;;;;0.60;0.20;;;;;;;9.21;79.61;101326.13;4953112;28;20051;-82
2022/05/10 08:40:10;;;;;;;0.32;0.30;;;;;;;9.20;80.73;101335.53;4933653;29;20110;-80
2022/05/10 08:42:47;;;;;;;2.72;0.32;;;;;;;9.19;80.52;101330.34;4933986;29;20060;-82
2022/05/10 08:45:18;;;;;;;0.32;0.20;;;;;;;9.17;80.98;101334.53;4946060;29;20118;-80
2022/05/10 08:47:49;;;;;;;1.08;0.50;;;;;;;9.18;79.59;101338.88;4952773;29;20105;-80
2022/05/10 08:50:18;;;;;;;1.08;0.30;;;;;;;9.18;79.44;101334.59;4952681;29;20051;-82
2022/05/10 08:52:51;;;;;;;0.43;0.43;;;;;;;9.17;78.38;101332.84;4951425;29;20066;-82
2022/05/10 08:55:25;;;;;;;1.85;0.82;;;;;;;9.18;78.80;101333.72;4951790;29;20051;-81
2022/05/10 08:58:00;;;;;;;0.20;0.20;;;;;;;9.17;78.85;101327.66;4952162;29;20153;-80
2022/05/10 09:00:36;;;;;;;0.22;0.20;;;;;;;9.16;80.01;101335.34;4952452;29;20154;-79
2022/05/10 09:03:19;;;;;;;1.00;0.82;;;;;;;9.13;79.21;101337.78;4951276;28;20051;-80
2022/05/10 09:05:48;;;;;;;0.55;0.30;;;;;;;9.12;77.49;101336.91;4952538;29;20465;-79
2022/05/10 09:08:27;;;;;;;0.63;0.40;;;;;;;9.11;78.16;101344.59;4952286;29;20058;-81
2022/05/10 09:10:59;;;;;;;0.20;0.20;;;;;;;9.10;78.56;101348.88;4952693;29;20113;-80
2022/05/10 09:13:27;;;;;;;0.77;0.40;;;;;;;9.12;78.60;101348.94;4950122;29;20115;-81
2022/05/10 09:15:58;;;;;;;2.25;0.60;;;;;;;9.11;77.59;101349.75;4952577;29;20484;-81
2022/05/10 09:18:30;;;;;;;0.65;0.40;;;;;;;9.11;77.31;101360.06;4952330;29;20086;-80
2022/05/10 09:21:10;;;;;;;0.95;0.45;;;;;;;9.13;77.74;101366.19;4951648;29;20147;-80
2022/05/10 09:23:46;;;;;;;1.50;0.60;;;;;;;9.15;77.88;101372.31;4950983;29;20055;-82
2022/05/10 09:26:15;;;;;;;1.52;0.30;;;;;;;9.08;80.13;101370.28;4945193;29;20066;-82
2022/05/10 09:28:50;;;;;;;0.57;0.30;;;;;;;9.01;81.24;101369.97;4951686;29;20047;-80
2022/05/10 09:37:16;;;;;;;1.17;0.55;;;;;;;8.96;82.92;101386.97;4952052;28;20055;-82
2022/05/10 09:39:50;;;;;;;0.93;0.60;;;;;;;8.97;83.44;101387.84;4951989;29;20047;-82
2022/05/10 09:42:30;;;;;;;1.90;0.20;;;;;;;8.99;84.16;101381.94;4954586;29;20079;-82
2022/05/10 09:45:00;;;;;;;1.75;0.40;;;;;;;9.02;84.64;101382.09;4952038;29;20114;-82
2022/05/10 09:47:29;;;;;;;1.23;0.60;;;;;;;9.05;84.42;101390.75;4951832;29;20138;-82
2022/05/10 09:50:14;;;;;;;1.90;0.63;;;;;;;9.06;85.43;101384.81;4951875;29;20114;-81
2022/05/10 09:52:43;;;;;;;0.80;0.40;;;;;;;9.02;85.39;101395.00;4950957;29;20174;-82
2022/05/10 09:55:17;;;;;;;0.30;0.30;;;;;;;9.02;84.90;101389.84;4950985;29;20047;-82
2022/05/10 09:57:47;;;;;;;1.30;0.50;;;;;;;9.05;85.40;101396.84;4950193;29;20051;-82
2022/05/10 10:00:18;;;;;;;1.80;0.40;;;;;;;9.07;86.67;101396.88;4951135;29;20057;-82
2022/05/10 10:02:57;;;;;;;2.00;0.70;;;;;;;9.05;86.19;101399.41;5172073;23;20062;-74
2022/05/10 10:05:32;;;;;;;3.10;0.47;;;;;;;9.09;86.36;101413.34;4956983;28;20055;-73
2022/05/10 10:08:01;;;;;;;1.73;0.45;;;;;;;9.11;85.33;101407.41;4967733;28;20097;-74
2022/05/10 10:10:32;;;;;;;1.42;0.43;;;;;;;9.12;84.48;101411.78;4969109;28;20566;-74
2022/05/10 10:13:22;;;;;;;0.40;0.30;;;;;;;9.12;83.70;101403.16;4968208;28;20051;-74
2022/05/10 10:15:50;;;;;;;0.80;0.40;;;;;;;9.14;85.59;101419.59;4969241;28;20055;-74
2022/05/10 10:18:43;;;;;;;1.70;0.50;;;;;;;9.15;85.77;101418.78;4968229;28;20130;-73
2022/05/10 10:21:16;;;;;;;1.70;0.40;;;;;;;9.15;85.36;101429.13;4962926;28;20192;-73
2022/05/10 10:23:50;;;;;;;0.95;0.50;;;;;;;9.15;84.35;101424.81;4969277;28;20051;-72
2022/05/10 10:26:27;;;;;;;1.20;0.45;;;;;;;9.09;84.50;101432.28;4969116;28;20567;-74
2022/05/10 10:29:00;;;;;;;0.90;0.38;;;;;;;9.08;84.50;101435.69;4955547;28;20130;-74
2022/05/10 10:31:34;;;;;;;0.65;0.40;;;;;;;9.07;83.99;101433.94;4950072;29;20047;-74
2022/05/10 10:34:09;;;;;;;1.33;0.60;;;;;;;9.09;85.08;101437.44;4951425;28;20477;-74
2022/05/10 10:36:45;;;;;;;5.47;0.65;;;;;;;9.06;86.12;101436.44;4966231;28;20105;-74
2022/05/10 10:39:23;;;;;;;3.13;0.25;;;;;;;9.07;86.53;101433.03;4973831;28;20555;-74
2022/05/10 10:41:57;;;;;;;1.40;0.50;;;;;;;9.08;86.46;101442.56;4973973;28;20082;-75
2022/05/10 10:44:28;;;;;;;1.67;0.38;;;;;;;9.10;87.08;101446.09;4973394;28;20059;-73
2022/05/10 10:47:13;;;;;;;1.40;0.50;;;;;;;9.11;87.79;101447.84;4972098;28;20047;-74
2022/05/10 10:49:47;;;;;;;0.55;0.45;;;;;;;9.09;88.09;101445.19;4972774;28;20088;-74
2022/05/10 10:52:18;;;;;;;1.33;0.50;;;;;;;9.07;87.73;101451.09;4972375;28;20059;-74
2022/05/10 10:54:48;;;;;;;0.50;0.30;;;;;;;9.10;88.47;101456.44;4956854;28;20051;-75
2022/05/10 10:57:42;;;;;;;0.55;0.32;;;;;;;9.11;88.36;101453.00;4935886;29;20489;-74
2022/05/10 11:00:15;;;;;;;0.63;0.40;;;;;;;9.13;88.19;101456.56;4934254;29;20119;-75
2022/05/10 11:03:09;;;;;;;1.05;0.75;;;;;;;9.14;89.39;101460.91;4933588;28;20051;-75
2022/05/10 11:06:13;;;;;;;2.17;0.40;;;;;;;9.16;89.42;101467.00;4933917;29;20062;-75
2022/05/10 11:09:21;;;;;;;0.38;0.30;;;;;;;9.17;90.08;101468.81;4915243;29;20110;-74
2022/05/10 11:12:04;;;;;;;1.40;0.65;;;;;;;9.17;91.50;101471.38;4889485;29;20089;-73
2022/05/10 11:14:50;;;;;;;1.00;0.43;;;;;;;9.13;91.46;101469.47;4949976;29;20560;-74
2022/05/10 11:17:26;;;;;;;3.88;0.43;;;;;;;9.10;95.24;101466.75;4953328;29;20664;-75
2022/05/10 11:20:21;;;;;;;0.93;0.35;;;;;;;9.10;100.00;101470.22;4952629;29;20050;-76
2022/05/10 11:22:58;;;;;;;2.67;0.80;;;;;;;9.07;100.00;101466.59;4952660;29;20098;-76
2022/05/10 11:25:48;;;;;;;0.95;0.47;;;;;;;9.01;100.00;101462.91;4933290;29;20048;-77
2022/05/10 11:28:38;;;;;;;1.60;0.70;;;;;;;8.99;100.00;101467.13;4934033;29;20048;-78
2022/05/10 11:31:13;;;;;;;2.13;0.52;;;;;;;8.98;100.00;101467.06;4933909;29;20552;-79
2022/05/10 11:33:56;;;;;;;6.00;0.47;;;;;;;8.96;100.00;101479.88;4936758;29;20052;-80
2022/05/10 11:36:34;;;;;;;2.13;0.85;;;;;;;8.96;100.00;101481.59;4934476;29;20090;-78
2022/05/10 11:39:43;;;;;;;1.38;0.60;;;;;;;8.92;100.00;101477.09;4933225;29;20056;-79
2022/05/10 11:42:24;;;;;;;2.67;0.98;;;;;;;8.89;100.00;101480.41;4908489;29;20086;-76
2022/05/10 11:45:46;;;;;;;1.08;0.50;;;;;;;8.86;100.00;101485.41;4932478;29;20107;-76
2022/05/10 11:48:35;;;;;;;4.82;0.55;;;;;;;8.83;100.00;101480.09;4898784;29;20099;-76
2022/05/10 11:51:42;;;;;;;2.60;0.73;;;;;;;8.81;100.00;101484.31;4913702;29;20051;-76
2022/05/10 11:54:50;;;;;;;2.15;0.60;;;;;;;8.76;100.00;101485.78;4933170;29;20571;-76
2022/05/10 11:57:22;;;;;;;1.30;0.47;;;;;;;8.73;100.00;101485.66;4935108;29;20071;-76
2022/05/10 11:59:51;;;;;;;1.58;0.50;;;;;;;8.71;100.00;101492.44;4952013;29;20097;-76
2022/05/10 12:02:46;;;;;;;3.38;0.90;;;;;;;8.66;100.00;101492.19;4951470;29;20106;-77
2022/05/10 12:05:30;;;;;;;1.48;0.82;;;;;;;8.62;100.00;101495.44;4951547;29;20487;-76
2022/05/10 12:08:01;;;;;;;2.70;0.82;;;;;;;8.59;100.00;101497.88;4952123;29;20126;-76
2022/05/10 12:10:44;;;;;;;2.05;1.23;;;;;;;8.53;100.00;101492.41;4951147;29;20054;-76
2022/05/10 12:22:08;;;;;;;1.20;0.70;;;;;;;8.23;100.00;101502.03;4950601;29;20513;-77
2022/05/10 12:24:39;;;;;;;1.55;0.60;;;;;;;8.18;100.00;101510.41;4951799;29;20051;-75
2022/05/10 12:27:36;;;;;;;1.45;0.77;;;;;;;8.11;100.00;101512.59;4951330;29;20420;-76